BWA weather

Gautam Buddha Airport
Bhairawa, Lumbini, Nepal

Public forecast

Using degrees Celsius for public forecast. Weather courtesy of forecast.io.

METAR (pilot weather report)

Report is more than 2 hours old.

Closest report is Gorakhpur Airport, 46.0 nm (85.2 km) S. Retrieved 2019/07/22 17:30 UTC (3 hours ago):

VEGK 221730Z 18003KT 6000 FEW030 FEW040CB SCT250 29/28 Q1000 NOSIG

TAF (pilot weather forecast)

Forecast is more than 6 hours old.

Closest forecast is Gorakhpur Airport, 46.0 nm (85.2 km) S. Retrieved 2019/07/22 12:30 UTC (8 hours ago):

TAF VEGK 220930Z 2212/2224 24005KT 6000 SCT030 SCT090 TEMPO 2216/2218 VRB02KT 4000 -RA SCT020 SCT090 FEW030CB BECMG 2222/2224 5000 BR FEW030 SCT090